Time;durP1;ratioP1;P1;durP2;ratioP2;P2;SDS_P1;SDS_P2;PMS_P1;PMS_P2;Temp;Humidity;BMP_temperature;BMP_pressure;BME280_temperature;BME280_humidity;BME280_pressure;Samples;Min_cycle;Max_cycle;Signal;HPM_P1;HPM_P2
2021/03/21 00:01:15;;;;;;;7.93;3.43;;;2.00;82.00;;;;;;4979006;28;20403;-88
2021/03/21 00:03:44;;;;;;;6.20;2.97;;;2.00;85.80;;;;;;4978448;28;20026;-88
2021/03/21 00:06:15;;;;;;;6.90;2.93;;;2.10;85.80;;;;;;4977994;28;20046;-87
2021/03/21 00:08:43;;;;;;;8.77;3.53;;;2.10;85.60;;;;;;4976675;28;20039;-89
2021/03/21 00:11:15;;;;;;;7.00;2.90;;;2.00;86.90;;;;;;4997301;28;20058;-88
2021/03/21 00:13:47;;;;;;;7.07;3.20;;;2.00;83.60;;;;;;4993273;28;20034;-88
2021/03/21 00:16:13;;;;;;;8.70;3.25;;;2.00;84.60;;;;;;4983354;28;20027;-87
2021/03/21 00:18:46;;;;;;;7.00;3.10;;;2.00;82.30;;;;;;4999987;28;20029;-87
2021/03/21 00:21:16;;;;;;;7.97;3.70;;;1.90;81.90;;;;;;4992205;28;20026;-88
2021/03/21 00:23:48;;;;;;;9.37;3.43;;;2.00;83.40;;;;;;4966603;28;20085;-88
2021/03/21 00:26:17;;;;;;;7.15;3.35;;;1.90;84.90;;;;;;4983733;28;20045;-87
2021/03/21 00:28:52;;;;;;;7.13;2.90;;;2.00;85.90;;;;;;4977105;28;20034;-88
2021/03/21 00:31:22;;;;;;;6.70;3.03;;;2.00;84.60;;;;;;4981714;28;20026;-87
2021/03/21 00:33:53;;;;;;;5.57;3.07;;;2.00;81.20;;;;;;4979750;28;20031;-88
2021/03/21 00:36:19;;;;;;;6.90;3.03;;;2.00;83.60;;;;;;4974959;28;20085;-88
2021/03/21 00:39:10;;;;;;;6.13;2.93;;;2.00;81.80;;;;;;4987463;28;20113;-88
2021/03/21 00:41:41;;;;;;;5.73;2.63;;;2.00;84.20;;;;;;4994818;28;20044;-88
2021/03/21 00:44:12;;;;;;;6.17;2.93;;;2.10;81.90;;;;;;4977699;28;20061;-88
2021/03/21 00:46:47;;;;;;;5.33;3.13;;;2.00;85.50;;;;;;4997184;28;20053;-87
2021/03/21 00:49:30;;;;;;;6.53;2.90;;;2.00;84.90;;;;;;4982935;28;20029;-87
2021/03/21 00:51:56;;;;;;;5.53;2.67;;;2.00;85.90;;;;;;4995116;28;20113;-88
2021/03/21 00:54:34;;;;;;;5.33;2.57;;;2.10;85.70;;;;;;4983734;28;20431;-88
2021/03/21 00:57:32;;;;;;;6.17;2.60;;;2.10;83.30;;;;;;4993085;28;20057;-88
2021/03/21 01:00:20;;;;;;;6.53;2.93;;;2.10;82.30;;;;;;4994513;28;20113;-87
2021/03/21 01:02:49;;;;;;;5.83;2.83;;;2.10;79.80;;;;;;4982555;28;20026;-88
2021/03/21 01:05:24;;;;;;;7.87;2.80;;;2.10;82.60;;;;;;4993848;28;20029;-87
2021/03/21 01:08:12;;;;;;;6.17;2.90;;;2.10;82.00;;;;;;4967903;28;20038;-87
2021/03/21 01:10:42;;;;;;;7.03;2.63;;;2.00;82.80;;;;;;4984243;28;20027;-88
2021/03/21 01:13:21;;;;;;;6.23;2.50;;;1.90;82.60;;;;;;5000375;28;20022;-88
2021/03/21 01:16:39;;;;;;;6.00;2.40;;;2.10;84.70;;;;;;4985538;28;20034;-88
2021/03/21 01:19:15;;;;;;;5.73;2.40;;;2.10;83.80;;;;;;4989695;28;20042;-88
2021/03/21 01:21:47;;;;;;;5.80;2.60;;;2.10;84.40;;;;;;4979826;28;20034;-88
2021/03/21 01:24:23;;;;;;;4.40;2.05;;;2.10;82.60;;;;;;5000726;28;20034;-88
2021/03/21 01:27:16;;;;;;;4.60;2.40;;;2.10;80.90;;;;;;4996880;28;20030;-87
2021/03/21 01:30:00;;;;;;;5.97;2.57;;;2.10;83.00;;;;;;5012303;28;20073;-88
2021/03/21 01:32:31;;;;;;;5.77;2.63;;;2.10;82.60;;;;;;4996897;28;20269;-88
2021/03/21 01:35:11;;;;;;;5.37;2.60;;;2.10;83.60;;;;;;5006403;28;20042;-88
2021/03/21 01:37:44;;;;;;;7.23;2.43;;;2.10;82.20;;;;;;5006705;28;20094;-88
2021/03/21 01:40:25;;;;;;;;;;;2.10;83.70;;;;;;5004845;28;20038;-87
2021/03/21 01:42:58;;;;;;;5.37;2.20;;;2.10;79.90;;;;;;5010163;28;19906;-87
2021/03/21 01:45:42;;;;;;;4.70;2.67;;;2.00;77.70;;;;;;5002668;28;20035;-88
2021/03/21 01:48:21;;;;;;;;;;;;;;;;;;;;;
2021/03/21 01:51:12;;;;;;;7.10;3.20;;;2.00;79.80;;;;;;5016135;28;20072;-88
2021/03/21 01:53:47;;;;;;;6.37;2.40;;;2.00;79.20;;;;;;4986390;28;20022;-87
2021/03/21 01:56:33;;;;;;;7.40;2.40;;;2.00;80.90;;;;;;4994088;28;20061;-88
2021/03/21 01:59:17;;;;;;;4.43;2.33;;;2.00;80.40;;;;;;4988558;28;20049;-87
2021/03/21 02:02:02;;;;;;;;;;;;;;;;;;;;;
2021/03/21 02:04:31;;;;;;;5.63;2.60;;;2.00;81.40;;;;;;4998967;28;20033;-88
2021/03/21 02:07:37;;;;;;;6.03;2.50;;;2.00;81.00;;;;;;4980655;28;20026;-88
2021/03/21 02:10:58;;;;;;;5.90;2.73;;;2.00;81.80;;;;;;5005775;28;20023;-88
2021/03/21 02:14:02;;;;;;;5.97;2.40;;;1.90;79.70;;;;;;4971676;28;20578;-88
2021/03/21 02:16:53;;;;;;;5.70;2.60;;;2.00;81.10;;;;;;5001580;28;20018;-88
2021/03/21 02:19:39;;;;;;;6.13;2.40;;;2.00;78.30;;;;;;4980117;28;20080;-88
2021/03/21 02:22:28;;;;;;;;;;;;;;;;;;;;;
2021/03/21 02:25:32;;;;;;;6.13;2.77;;;1.80;77.30;;;;;;4996585;28;20028;-88
2021/03/21 02:28:31;;;;;;;5.80;2.60;;;1.90;79.20;;;;;;4988528;28;20037;-88
2021/03/21 02:35:01;;;;;;;;;;;;;;;;;;;;;
2021/03/21 02:47:49;;;;;;;4.43;2.20;;;1.90;81.50;;;;;;4995203;28;20054;-87
2021/03/21 02:51:26;;;;;;;;;;;;;;;;;;;;;
2021/03/21 02:54:23;;;;;;;7.23;2.10;;;2.00;82.70;;;;;;4986842;28;20026;-87
2021/03/21 02:57:55;;;;;;;6.83;2.33;;;2.00;81.10;;;;;;5001493;28;20080;-87
2021/03/21 03:04:34;;;;;;;;;;;;;;;;;;;;;
2021/03/21 03:14:44;;;;;;;4.83;2.20;;;2.00;83.10;;;;;;4994500;28;20069;-88
2021/03/21 03:18:27;;;;;;;5.93;2.50;;;2.00;78.20;;;;;;4993859;28;20440;-87
2021/03/21 03:24:52;;;;;;;;;;;;;;;;;;;;;
2021/03/21 03:32:10;;;;;;;;;;;;;;;;;;;;;
2021/03/21 03:42:18;;;;;;;;;;;;;;;;;;;;;
2021/03/21 03:45:34;;;;;;;;;;;;;;;;;;;;;
2021/03/21 03:59:26;;;;;;;5.10;2.37;;;1.90;80.90;;;;;;4997396;28;20042;-88
2021/03/21 04:05:51;;;;;;;;;;;;;;;;;;;;;
2021/03/21 04:22:54;;;;;;;6.00;2.40;;;1.80;84.80;;;;;;4935309;29;20043;-89
2021/03/21 04:26:22;;;;;;;5.37;2.27;;;1.80;84.20;;;;;;4954320;28;20551;-88
2021/03/21 04:32:37;;;;;;;;;;;;;;;;;;;;;
2021/03/21 04:39:36;;;;;;;;;;;;;;;;;;;;;
2021/03/21 04:48:59;;;;;;;;;;;;;;;;;;;;;
2021/03/21 04:52:22;;;;;;;5.93;2.60;;;1.90;93.50;;;;;;4956066;29;20115;-87
2021/03/21 04:55:37;;;;;;;;;;;;;;;;;;;;;
2021/03/21 05:02:40;;;;;;;;;;;;;;;;;;;;;
2021/03/21 05:06:07;;;;;;;;;;;;;;;;;;;;;
2021/03/21 05:12:32;;;;;;;5.97;2.87;;;1.70;91.50;;;;;;4921385;29;20035;-88
2021/03/21 05:15:40;;;;;;;8.53;2.77;;;1.60;91.80;;;;;;4960044;28;20126;-87
2021/03/21 05:22:42;;;;;;;;;;;;;;;;;;;;;
2021/03/21 05:25:56;;;;;;;5.83;2.90;;;1.50;94.00;;;;;;4936894;29;20034;-88
2021/03/21 05:29:16;;;;;;;;;;;;;;;;;;;;;
2021/03/21 05:36:10;;;;;;;;;;;;;;;;;;;;;
2021/03/21 05:39:36;;;;;;;6.28;2.72;;;1.60;94.70;;;;;;4919212;29;20151;-87
2021/03/21 05:42:43;;;;;;;;;;;;;;;;;;;;;
2021/03/21 05:46:01;;;;;;;7.47;2.93;;;1.70;95.10;;;;;;4916547;29;20129;-87
2021/03/21 05:49:19;;;;;;;;;;;;;;;;;;;;;
2021/03/21 05:58:30;;;;;;;5.53;2.80;;;1.80;97.20;;;;;;5021940;22;20058;-87
2021/03/21 06:05:05;;;;;;;7.60;2.50;;;1.80;95.70;;;;;;4983180;28;20077;-87
2021/03/21 06:12:02;;;;;;;;;;;;;;;;;;;;;
2021/03/21 06:15:15;;;;;;;4.77;2.63;;;1.80;96.80;;;;;;4960052;28;20034;-88
2021/03/21 06:18:06;;;;;;;;;;;;;;;;;;;;;
2021/03/21 06:21:14;;;;;;;7.10;2.90;;;1.70;98.90;;;;;;4954763;29;19916;-87
2021/03/21 06:28:10;;;;;;;7.70;3.17;;;1.70;98.50;;;;;;4951096;28;20056;-87
2021/03/21 06:30:48;;;;;;;7.03;3.07;;;1.60;98.60;;;;;;4941450;28;20053;-87
2021/03/21 06:33:40;;;;;;;7.33;3.10;;;1.70;99.80;;;;;;4965753;28;20121;-87
2021/03/21 06:37:11;;;;;;;7.25;3.03;;;1.70;99.20;;;;;;4975156;28;20060;-87
2021/03/21 06:40:05;;;;;;;5.87;2.70;;;1.70;99.10;;;;;;4958443;28;20448;-87
2021/03/21 06:43:08;;;;;;;7.10;2.60;;;1.70;98.20;;;;;;4988777;28;20041;-88
2021/03/21 06:46:00;;;;;;;6.40;3.27;;;1.70;97.70;;;;;;4980892;28;20049;-87
2021/03/21 06:48:58;;;;;;;7.25;2.55;;;1.60;98.10;;;;;;4955242;28;20516;-88
2021/03/21 06:51:39;;;;;;;6.07;2.77;;;1.80;98.30;;;;;;4955448;28;20035;-87
2021/03/21 06:54:31;;;;;;;7.87;2.50;;;1.80;97.60;;;;;;4973833;28;20149;-88
2021/03/21 06:57:34;;;;;;;8.52;2.63;;;1.80;97.80;;;;;;4975475;28;20145;-88
2021/03/21 07:00:48;;;;;;;7.03;3.03;;;1.90;98.40;;;;;;4975595;28;20061;-88
2021/03/21 07:03:38;;;;;;;7.40;2.80;;;2.00;99.20;;;;;;4973232;28;20043;-87
2021/03/21 07:07:02;;;;;;;6.47;2.70;;;2.00;96.80;;;;;;4977110;28;20050;-88
2021/03/21 07:10:05;;;;;;;5.82;2.15;;;2.00;97.30;;;;;;4993129;28;20380;-87
2021/03/21 07:12:33;;;;;;;7.20;2.60;;;2.00;97.20;;;;;;4974884;28;20030;-87
2021/03/21 07:15:27;;;;;;;7.57;3.17;;;2.10;97.70;;;;;;4974959;28;20026;-87
2021/03/21 07:18:29;;;;;;;8.00;2.83;;;2.10;98.20;;;;;;4990912;28;20031;-87
2021/03/21 07:22:07;;;;;;;6.87;2.57;;;2.10;96.60;;;;;;4978364;28;20161;-87
2021/03/21 07:28:18;;;;;;;5.37;2.87;;;2.20;98.70;;;;;;4975779;28;20056;-88
2021/03/21 07:31:11;;;;;;;5.57;2.87;;;2.10;97.80;;;;;;4974977;28;20154;-88
2021/03/21 07:34:06;;;;;;;6.93;2.77;;;2.20;98.00;;;;;;4960228;28;20487;-87
2021/03/21 07:36:52;;;;;;;6.80;2.60;;;2.20;98.10;;;;;;4956404;28;20590;-87
2021/03/21 07:39:47;;;;;;;6.33;3.07;;;2.20;98.40;;;;;;4974300;28;20039;-87
2021/03/21 07:42:22;;;;;;;5.87;2.70;;;2.20;97.80;;;;;;4974877;28;20445;-87
2021/03/21 07:45:18;;;;;;;6.57;2.87;;;2.20;98.20;;;;;;4974732;28;20034;-87
2021/03/21 07:47:59;;;;;;;5.27;2.97;;;2.20;97.60;;;;;;4992290;28;20038;-88
2021/03/21 07:50:28;;;;;;;6.77;2.67;;;2.30;98.00;;;;;;4974561;28;20023;-87
2021/03/21 07:53:08;;;;;;;7.17;2.70;;;2.30;97.90;;;;;;4974725;28;20491;-87
2021/03/21 07:55:39;;;;;;;5.40;2.73;;;2.30;98.30;;;;;;4970291;28;20022;-88
2021/03/21 07:58:27;;;;;;;4.18;1.73;;;2.30;98.10;;;;;;4974382;28;20040;-87
2021/03/21 08:00:54;;;;;;;5.40;2.70;;;2.40;97.80;;;;;;4974135;28;20065;-87
2021/03/21 08:03:30;;;;;;;7.17;2.80;;;2.40;97.90;;;;;;4974225;28;20125;-88
2021/03/21 08:05:59;;;;;;;5.50;2.77;;;2.50;98.20;;;;;;4973918;28;20061;-87
2021/03/21 08:08:36;;;;;;;5.67;2.47;;;2.50;97.90;;;;;;4973991;28;20032;-87
2021/03/21 08:11:05;;;;;;;9.20;2.97;;;2.50;98.10;;;;;;4973279;28;20031;-87
2021/03/21 08:13:44;;;;;;;5.53;2.77;;;2.50;97.10;;;;;;4984487;28;20496;-87
2021/03/21 08:16:15;;;;;;;5.60;2.67;;;2.60;97.40;;;;;;4973554;28;20467;-88
2021/03/21 08:18:45;;;;;;;7.87;2.90;;;2.50;97.10;;;;;;4974193;28;20026;-87
2021/03/21 08:21:20;;;;;;;5.67;2.60;;;2.60;97.40;;;;;;4973197;28;20019;-87
2021/03/21 08:23:54;;;;;;;6.90;2.80;;;2.60;96.70;;;;;;4974326;28;20096;-87
2021/03/21 08:26:31;;;;;;;5.17;3.03;;;2.60;96.40;;;;;;4974437;28;20023;-87
2021/03/21 08:29:06;;;;;;;5.87;2.63;;;2.70;97.30;;;;;;4974892;28;20026;-87
2021/03/21 08:31:34;;;;;;;7.00;2.87;;;2.70;97.20;;;;;;4976313;28;20030;-87
2021/03/21 08:34:35;;;;;;;6.30;2.93;;;2.70;97.10;;;;;;4993434;28;20725;-87
2021/03/21 08:37:27;;;;;;;6.73;2.83;;;2.80;97.70;;;;;;4983753;28;20030;-87
2021/03/21 08:40:22;;;;;;;7.37;3.17;;;2.90;98.00;;;;;;4973999;28;20026;-88
2021/03/21 08:42:51;;;;;;;6.97;3.53;;;2.90;98.20;;;;;;4982365;28;20700;-88
2021/03/21 08:45:36;;;;;;;6.77;3.20;;;2.90;99.30;;;;;;4984211;28;20022;-87
2021/03/21 08:48:10;;;;;;;8.03;3.40;;;3.00;99.80;;;;;;4973999;28;20034;-88
2021/03/21 08:50:40;;;;;;;6.23;3.03;;;2.90;98.90;;;;;;4970471;28;20036;-87
2021/03/21 08:53:31;;;;;;;7.33;3.57;;;3.00;98.90;;;;;;4973755;28;20408;-88
2021/03/21 08:56:13;;;;;;;6.90;3.20;;;3.00;99.90;;;;;;4969861;28;20046;-87
2021/03/21 08:58:39;;;;;;;5.47;2.65;;;3.20;98.50;;;;;;4977116;28;20042;-88
2021/03/21 09:01:23;;;;;;;7.63;3.43;;;3.10;97.50;;;;;;4971228;28;20084;-87
2021/03/21 09:03:51;;;;;;;6.07;2.67;;;3.20;98.00;;;;;;4988714;28;20030;-87
2021/03/21 09:06:35;;;;;;;7.77;3.13;;;3.30;97.40;;;;;;4973117;28;20105;-87
2021/03/21 09:09:22;;;;;;;7.33;2.73;;;3.40;96.60;;;;;;4973285;28;20034;-88
2021/03/21 09:11:58;;;;;;;6.80;2.80;;;3.50;96.20;;;;;;4973844;28;20018;-87
2021/03/21 09:14:30;;;;;;;6.50;2.87;;;3.60;96.40;;;;;;4972510;28;20105;-88
2021/03/21 09:16:57;;;;;;;6.60;2.90;;;3.60;95.60;;;;;;4990393;28;20090;-87
2021/03/21 09:19:27;;;;;;;7.30;2.70;;;3.60;95.50;;;;;;4972545;28;20067;-87
2021/03/21 09:21:54;;;;;;;5.57;2.50;;;3.60;95.40;;;;;;4988306;28;20026;-87
2021/03/21 09:24:45;;;;;;;5.17;2.70;;;3.60;95.10;;;;;;4973852;28;20034;-87
2021/03/21 09:27:38;;;;;;;5.20;2.63;;;3.60;95.40;;;;;;4967962;28;20376;-88
2021/03/21 09:30:29;;;;;;;7.23;2.97;;;3.60;95.40;;;;;;4983193;28;20034;-87
2021/03/21 09:33:00;;;;;;;6.00;2.90;;;3.60;94.90;;;;;;4975021;28;20583;-87
2021/03/21 09:35:58;;;;;;;6.30;2.80;;;3.60;96.30;;;;;;4971232;28;20094;-87
2021/03/21 09:38:32;;;;;;;5.77;2.50;;;3.70;95.80;;;;;;4963332;28;20137;-87
2021/03/21 09:41:10;;;;;;;5.63;2.60;;;3.70;95.70;;;;;;4974233;28;20065;-87
2021/03/21 09:43:39;;;;;;;7.20;3.10;;;3.70;94.40;;;;;;4993760;28;20050;-86
2021/03/21 09:46:20;;;;;;;4.97;2.90;;;3.70;94.30;;;;;;4970876;28;20064;-87
2021/03/21 09:48:53;;;;;;;7.63;2.80;;;3.80;94.60;;;;;;4993908;28;20037;-87
2021/03/21 09:51:46;;;;;;;6.33;2.70;;;3.90;94.40;;;;;;4974584;28;20023;-87
2021/03/21 09:54:22;;;;;;;7.23;3.10;;;3.90;94.50;;;;;;4973125;28;20026;-87
2021/03/21 09:57:01;;;;;;;6.87;3.20;;;3.90;94.20;;;;;;4970196;28;20037;-87
2021/03/21 09:59:39;;;;;;;5.73;2.83;;;3.90;94.50;;;;;;4970318;28;20400;-87
2021/03/21 10:02:17;;;;;;;6.03;3.03;;;4.00;94.50;;;;;;4972357;28;20022;-87
2021/03/21 10:05:02;;;;;;;7.00;3.27;;;4.10;94.00;;;;;;4969268;28;20480;-87
2021/03/21 10:07:33;;;;;;;6.23;3.17;;;4.10;93.80;;;;;;4988460;28;20663;-87
2021/03/21 10:10:05;;;;;;;6.67;3.50;;;4.20;93.40;;;;;;4972053;28;20492;-87
2021/03/21 10:12:31;;;;;;;8.13;3.78;;;4.20;94.10;;;;;;4973427;28;20488;-87
2021/03/21 10:15:02;;;;;;;6.20;3.20;;;4.30;94.20;;;;;;4973724;28;20044;-86
2021/03/21 10:17:28;;;;;;;10.37;3.33;;;4.30;93.50;;;;;;4972104;28;20033;-87
2021/03/21 10:19:56;;;;;;;8.07;3.77;;;4.30;93.70;;;;;;4978174;28;20029;-88
2021/03/21 10:22:26;;;;;;;7.13;3.63;;;4.50;93.90;;;;;;4985192;28;20035;-87
2021/03/21 10:24:57;;;;;;;8.17;3.93;;;4.50;93.60;;;;;;4971650;28;20049;-87
2021/03/21 10:27:45;;;;;;;7.67;4.03;;;4.60;94.30;;;;;;5001325;28;20057;-87
2021/03/21 10:30:23;;;;;;;7.67;3.90;;;4.60;95.30;;;;;;4972928;28;20042;-87
2021/03/21 10:33:17;;;;;;;5.97;3.10;;;4.70;95.90;;;;;;4973954;28;20034;-87
2021/03/21 10:35:43;;;;;;;6.33;3.30;;;4.70;96.20;;;;;;4989292;28;20357;-87
2021/03/21 10:38:10;;;;;;;8.60;3.97;;;4.80;97.20;;;;;;4985570;28;20098;-87
2021/03/21 10:40:45;;;;;;;6.37;3.60;;;4.90;98.50;;;;;;4975240;28;20026;-88
2021/03/21 10:43:16;;;;;;;8.03;4.20;;;4.90;99.90;;;;;;4972027;28;20026;-87
2021/03/21 10:45:42;;;;;;;10.90;4.50;;;5.00;99.90;;;;;;4973613;28;20037;-87
2021/03/21 10:48:17;;;;;;;7.73;4.30;;;4.80;99.90;;;;;;4967760;28;20035;-87
2021/03/21 10:50:45;;;;;;;7.93;3.97;;;4.80;99.90;;;;;;4975525;28;20113;-87
2021/03/21 10:53:32;;;;;;;8.00;4.03;;;4.90;99.90;;;;;;4975038;28;20030;-87
2021/03/21 10:56:21;;;;;;;8.97;4.90;;;5.00;99.90;;;;;;4973898;28;20103;-87
2021/03/21 10:58:46;;;;;;;8.83;4.20;;;5.00;99.90;;;;;;4969848;28;20170;-87
2021/03/21 11:01:22;;;;;;;7.07;3.70;;;5.20;99.90;;;;;;4973169;28;20038;-87
2021/03/21 11:04:03;;;;;;;7.20;3.97;;;5.30;99.90;;;;;;4974636;28;20126;-87
2021/03/21 11:06:34;;;;;;;8.83;4.03;;;5.30;99.90;;;;;;4968119;28;20125;-87
2021/03/21 11:09:16;;;;;;;10.37;4.50;;;5.20;99.90;;;;;;4971038;28;20077;-87
2021/03/21 11:11:44;;;;;;;8.30;4.57;;;5.20;99.90;;;;;;4974039;28;20505;-87
2021/03/21 11:14:39;;;;;;;8.23;4.07;;;5.20;99.90;;;;;;4974135;28;20076;-87
2021/03/21 11:17:17;;;;;;;8.83;4.33;;;5.30;99.90;;;;;;4974361;28;20478;-87
2021/03/21 11:19:46;;;;;;;9.53;4.77;;;5.50;99.90;;;;;;4983609;28;20104;-87
2021/03/21 11:22:30;;;;;;;9.93;5.50;;;5.60;99.90;;;;;;4987242;28;20415;-87
2021/03/21 11:24:56;;;;;;;8.90;5.10;;;5.60;99.90;;;;;;4999992;28;20029;-87
2021/03/21 11:27:32;;;;;;;12.43;6.50;;;5.70;99.90;;;;;;4971316;28;20595;-87
2021/03/21 11:30:16;;;;;;;12.33;6.77;;;5.60;99.90;;;;;;4974495;28;20029;-87
2021/03/21 11:32:42;;;;;;;11.80;6.63;;;5.60;99.90;;;;;;4977324;28;20450;-88
2021/03/21 11:35:12;;;;;;;11.37;7.13;;;5.50;99.90;;;;;;4976891;28;20428;-87
2021/03/21 11:37:43;;;;;;;12.70;7.03;;;5.50;99.90;;;;;;4974015;28;20034;-87
2021/03/21 11:40:16;;;;;;;12.25;6.75;;;5.40;99.90;;;;;;4968943;28;20138;-87
2021/03/21 11:42:45;;;;;;;14.47;7.23;;;5.40;99.90;;;;;;4972354;28;20517;-87
2021/03/21 11:45:27;;;;;;;11.00;6.30;;;5.40;99.90;;;;;;4985403;28;20076;-88
2021/03/21 11:48:08;;;;;;;9.80;6.47;;;5.50;99.90;;;;;;4974556;28;20054;-87
2021/03/21 11:50:35;;;;;;;11.63;7.33;;;5.60;99.90;;;;;;4974959;28;20038;-86
2021/03/21 11:53:03;;;;;;;13.10;6.87;;;5.60;99.90;;;;;;4973886;28;20030;-87
2021/03/21 11:55:32;;;;;;;12.87;6.87;;;5.60;99.90;;;;;;4974413;28;20046;-87
2021/03/21 11:58:04;;;;;;;11.40;6.63;;;5.60;99.90;;;;;;4973158;28;20380;-87
2021/03/21 12:00:38;;;;;;;11.27;6.68;;;5.60;99.90;;;;;;4973019;28;20524;-85
2021/03/21 12:03:13;;;;;;;11.77;6.70;;;5.50;99.90;;;;;;4984525;28;20041;-84
2021/03/21 12:05:42;;;;;;;10.13;6.70;;;5.60;99.90;;;;;;4990510;28;20081;-85
2021/03/21 12:08:13;;;;;;;12.03;6.23;;;5.50;99.90;;;;;;4976867;28;20026;-85
2021/03/21 12:10:42;;;;;;;10.88;5.93;;;5.50;99.90;;;;;;4972319;28;20074;-87
2021/03/21 12:13:30;;;;;;;10.70;6.10;;;5.50;99.90;;;;;;4975224;28;20542;-88
2021/03/21 12:15:58;;;;;;;10.93;6.07;;;5.50;99.90;;;;;;4968506;28;20027;-88
2021/03/21 12:18:29;;;;;;;7.77;4.83;;;5.50;99.90;;;;;;4986014;28;20122;-88
2021/03/21 12:20:59;;;;;;;10.15;5.75;;;5.50;99.90;;;;;;4969057;28;20058;-88
2021/03/21 12:23:30;;;;;;;9.73;5.63;;;5.60;99.90;;;;;;4967553;28;20181;-87
2021/03/21 12:26:12;;;;;;;9.70;5.28;;;5.50;99.90;;;;;;4969283;28;20027;-88
2021/03/21 12:28:56;;;;;;;11.77;5.65;;;5.60;99.90;;;;;;4981436;28;20031;-88
2021/03/21 12:31:38;;;;;;;8.13;5.07;;;5.60;99.90;;;;;;4984886;28;20165;-89
2021/03/21 12:34:33;;;;;;;8.18;5.13;;;5.70;99.90;;;;;;4968561;28;20038;-88
2021/03/21 12:37:04;;;;;;;7.90;4.70;;;5.70;99.90;;;;;;4970316;28;20404;-88
2021/03/21 12:39:35;;;;;;;7.77;4.57;;;5.70;99.90;;;;;;4968817;28;20133;-88
2021/03/21 12:42:01;;;;;;;7.53;4.50;;;5.80;99.90;;;;;;4968734;28;20572;-87
2021/03/21 12:44:33;;;;;;;8.93;4.97;;;6.00;99.90;;;;;;4989877;28;20101;-89
2021/03/21 12:46:59;;;;;;;7.70;4.05;;;5.90;99.90;;;;;;4971047;28;20151;-88
2021/03/21 12:49:38;;;;;;;6.40;3.83;;;6.00;99.90;;;;;;4969948;28;20675;-88
2021/03/21 12:52:07;;;;;;;7.27;4.00;;;6.10;99.90;;;;;;4970948;28;20062;-88
2021/03/21 12:54:35;;;;;;;9.30;3.60;;;6.00;99.90;;;;;;4990761;28;20042;-88
2021/03/21 12:57:00;;;;;;;5.70;3.43;;;5.90;99.90;;;;;;4984832;28;20018;-87
2021/03/21 12:59:26;;;;;;;7.63;3.73;;;5.90;99.90;;;;;;4971944;28;20456;-88
2021/03/21 13:01:52;;;;;;;4.93;2.60;;;6.00;99.90;;;;;;4971279;28;20050;-88
2021/03/21 13:04:18;;;;;;;6.00;3.03;;;6.00;99.90;;;;;;4978591;28;20539;-88
2021/03/21 13:06:45;;;;;;;5.80;2.97;;;6.10;99.90;;;;;;4978588;28;20030;-88
2021/03/21 13:09:11;;;;;;;4.53;2.70;;;6.20;99.90;;;;;;4980339;28;20026;-87
2021/03/21 13:11:38;;;;;;;4.93;2.93;;;6.30;99.90;;;;;;4975131;28;20045;-88
2021/03/21 13:14:05;;;;;;;6.23;3.70;;;6.30;99.90;;;;;;4976094;28;20722;-88
2021/03/21 13:16:31;;;;;;;5.43;3.00;;;6.40;99.90;;;;;;4970721;28;20033;-88
2021/03/21 13:18:57;;;;;;;5.63;3.23;;;6.40;99.90;;;;;;4964589;28;20038;-87
2021/03/21 13:21:23;;;;;;;5.60;3.23;;;6.40;99.90;;;;;;4974502;28;20050;-88
2021/03/21 13:23:50;;;;;;;5.50;3.33;;;6.60;99.90;;;;;;4972956;28;20026;-87
2021/03/21 13:26:16;;;;;;;6.13;3.57;;;6.60;99.90;;;;;;4973020;28;20078;-87
2021/03/21 13:28:42;;;;;;;6.57;3.30;;;6.50;99.90;;;;;;4978091;28;20018;-88
2021/03/21 13:31:08;;;;;;;5.77;2.90;;;6.40;99.90;;;;;;4987868;28;20041;-88
2021/03/21 13:33:35;;;;;;;8.00;3.10;;;6.30;99.90;;;;;;4971036;28;20030;-88
2021/03/21 13:36:07;;;;;;;5.10;3.10;;;6.30;99.90;;;;;;4970591;28;20026;-87
2021/03/21 13:38:33;;;;;;;;;;;6.40;99.90;;;;;;4977028;28;20029;-89
2021/03/21 13:41:02;;;;;;;6.63;3.40;;;6.30;99.90;;;;;;4971857;28;19906;-89
2021/03/21 13:43:30;;;;;;;6.13;3.30;;;6.30;99.90;;;;;;4957304;28;20037;-89
2021/03/21 13:45:58;;;;;;;6.73;3.50;;;6.30;99.90;;;;;;4976648;28;20026;-88
2021/03/21 13:48:25;;;;;;;6.43;3.60;;;6.20;99.90;;;;;;4992604;28;20113;-89
2021/03/21 13:50:51;;;;;;;6.77;3.20;;;6.20;99.90;;;;;;4966103;28;20024;-88
2021/03/21 13:53:19;;;;;;;6.40;3.57;;;6.20;99.90;;;;;;4974609;28;20031;-87
2021/03/21 13:55:46;;;;;;;6.77;3.80;;;6.30;99.90;;;;;;4967647;28;20517;-88
2021/03/21 13:58:13;;;;;;;5.60;3.30;;;6.30;99.90;;;;;;4985871;28;20030;-89
2021/03/21 14:00:39;;;;;;;8.57;3.87;;;6.30;99.90;;;;;;4971325;28;20365;-88
2021/03/21 14:03:06;;;;;;;5.77;3.57;;;6.30;99.90;;;;;;4971894;28;20437;-88
2021/03/21 14:05:32;;;;;;;7.00;3.80;;;6.30;99.90;;;;;;4971575;28;20033;-88
2021/03/21 14:07:59;;;;;;;6.30;3.80;;;6.50;99.90;;;;;;4960725;28;20030;-86
2021/03/21 14:10:28;;;;;;;7.27;4.00;;;6.50;99.90;;;;;;4977755;28;20845;-86
2021/03/21 14:12:54;;;;;;;6.53;4.00;;;6.50;99.90;;;;;;4980420;28;20054;-87
2021/03/21 14:15:23;;;;;;;5.60;3.63;;;6.50;99.90;;;;;;4974886;28;20055;-86
2021/03/21 14:17:55;;;;;;;10.13;4.60;;;6.40;99.90;;;;;;4974992;28;20094;-87
2021/03/21 14:20:24;;;;;;;7.00;3.85;;;6.30;99.90;;;;;;4979064;28;20077;-90
2021/03/21 14:22:50;;;;;;;9.30;5.63;;;6.30;99.90;;;;;;4976009;28;20065;-86
2021/03/21 14:25:19;;;;;;;7.60;4.40;;;6.20;99.90;;;;;;4991698;28;20034;-87
2021/03/21 14:27:45;;;;;;;7.60;4.60;;;6.30;99.90;;;;;;4973677;28;20329;-86
2021/03/21 14:30:16;;;;;;;7.30;4.53;;;6.10;99.90;;;;;;4976236;28;20037;-87
2021/03/21 14:32:42;;;;;;;7.43;4.37;;;6.10;99.90;;;;;;4976194;28;20045;-86
2021/03/21 14:35:11;;;;;;;8.97;6.10;;;6.20;99.90;;;;;;4960417;28;20164;-86
2021/03/21 14:37:40;;;;;;;8.97;5.07;;;6.10;99.90;;;;;;4969829;28;20030;-87
2021/03/21 14:40:07;;;;;;;7.37;4.50;;;6.20;99.90;;;;;;4975000;28;20025;-86
2021/03/21 14:42:35;;;;;;;9.70;4.60;;;6.20;99.90;;;;;;4976619;28;20121;-86
2021/03/21 14:45:02;;;;;;;7.37;4.40;;;6.20;99.90;;;;;;4974280;28;20045;-89
2021/03/21 14:47:28;;;;;;;7.77;4.63;;;6.20;99.90;;;;;;4976302;28;20023;-87
2021/03/21 14:49:54;;;;;;;9.47;4.27;;;6.30;99.90;;;;;;4976057;28;20037;-87
2021/03/21 14:52:20;;;;;;;9.70;4.67;;;6.40;99.90;;;;;;4978448;28;20042;-88
2021/03/21 14:54:46;;;;;;;7.63;4.43;;;6.40;99.90;;;;;;4975915;28;20073;-86
2021/03/21 14:57:12;;;;;;;6.60;4.27;;;6.50;99.90;;;;;;4978164;28;20026;-85
2021/03/21 14:59:37;;;;;;;7.17;4.27;;;6.50;99.90;;;;;;4983565;28;20129;-85
2021/03/21 15:02:04;;;;;;;7.67;4.60;;;6.60;99.90;;;;;;4974812;28;20085;-86
2021/03/21 15:04:31;;;;;;;8.97;4.53;;;6.70;99.90;;;;;;4970166;28;20357;-84
2021/03/21 15:07:06;;;;;;;8.50;4.77;;;6.80;99.90;;;;;;4975026;28;20034;-86
2021/03/21 15:09:40;;;;;;;9.10;5.23;;;6.80;99.90;;;;;;4976446;28;20395;-89
2021/03/21 15:12:08;;;;;;;9.57;4.93;;;6.80;99.90;;;;;;4993953;28;20031;-88
2021/03/21 15:14:34;;;;;;;8.17;5.47;;;6.70;99.90;;;;;;4975786;28;20030;-88
2021/03/21 15:16:59;;;;;;;10.73;5.63;;;6.80;99.90;;;;;;4973439;28;20118;-86
2021/03/21 15:19:31;;;;;;;10.23;5.03;;;7.00;99.90;;;;;;4976073;28;20041;-90
2021/03/21 15:21:58;;;;;;;8.10;5.30;;;7.30;99.90;;;;;;4975218;28;20061;-88
2021/03/21 15:24:24;;;;;;;11.40;6.37;;;7.70;99.90;;;;;;4986568;28;20503;-87
2021/03/21 15:26:52;;;;;;;9.70;5.70;;;8.00;99.90;;;;;;4971242;28;20085;-87
2021/03/21 15:29:18;;;;;;;15.03;7.10;;;8.30;99.90;;;;;;4971513;28;20095;-88
2021/03/21 15:31:44;;;;;;;11.67;6.70;;;8.00;99.90;;;;;;4976139;28;20560;-86
2021/03/21 15:34:13;;;;;;;11.73;6.30;;;7.60;99.90;;;;;;4991117;28;20549;-87
2021/03/21 15:36:40;;;;;;;14.63;7.20;;;7.30;99.90;;;;;;4977977;28;20030;-86
2021/03/21 15:39:08;;;;;;;12.93;7.27;;;7.20;99.90;;;;;;4976196;28;20027;-86
2021/03/21 15:41:38;;;;;;;11.97;6.13;;;7.10;99.90;;;;;;4977262;28;20026;-87
2021/03/21 15:44:08;;;;;;;9.03;5.50;;;6.90;99.90;;;;;;4977750;28;20435;-87
2021/03/21 15:46:36;;;;;;;10.67;6.17;;;6.80;99.90;;;;;;4976076;28;20041;-87
2021/03/21 15:49:04;;;;;;;9.07;5.30;;;6.80;99.90;;;;;;4975960;28;20027;-86
2021/03/21 15:51:31;;;;;;;9.10;5.80;;;6.70;99.90;;;;;;4976365;28;20056;-85
2021/03/21 15:54:01;;;;;;;10.00;5.53;;;6.70;99.90;;;;;;4994168;28;20026;-86
2021/03/21 15:56:27;;;;;;;9.70;5.43;;;6.70;99.90;;;;;;4976495;28;20077;-88
2021/03/21 15:58:53;;;;;;;9.60;5.77;;;6.70;99.90;;;;;;4978260;28;20511;-86
2021/03/21 16:01:24;;;;;;;10.93;5.97;;;6.60;99.90;;;;;;4972945;28;20022;-86
2021/03/21 16:03:51;;;;;;;10.07;6.10;;;6.60;99.90;;;;;;4976288;28;20027;-85
2021/03/21 16:06:18;;;;;;;9.30;5.70;;;6.60;99.90;;;;;;4978232;28;20069;-86
2021/03/21 16:08:45;;;;;;;11.80;6.13;;;6.60;99.90;;;;;;4975740;28;20030;-86
2021/03/21 16:11:12;;;;;;;10.20;5.73;;;6.60;99.90;;;;;;4975459;28;20077;-85
2021/03/21 16:13:38;;;;;;;10.07;5.70;;;6.60;99.90;;;;;;4978223;28;20029;-87
2021/03/21 16:16:04;;;;;;;10.60;5.77;;;6.70;99.90;;;;;;4976246;28;20019;-88
2021/03/21 16:18:30;;;;;;;14.00;7.37;;;6.70;99.90;;;;;;4973222;28;20045;-88
2021/03/21 16:20:57;;;;;;;8.33;5.53;;;6.60;99.90;;;;;;4974044;28;20023;-88
2021/03/21 16:23:23;;;;;;;11.80;6.07;;;6.50;99.90;;;;;;4978783;28;20109;-88
2021/03/21 16:25:49;;;;;;;13.37;6.47;;;6.50;99.90;;;;;;4970768;28;20034;-88
2021/03/21 16:28:17;;;;;;;13.57;7.77;;;6.50;99.90;;;;;;4972237;28;20041;-88